Airfield :
LOGIN :

Register | Disclaimer

   EN    FR    IT 

 










Legend :    VFR   Marginal VFR   IFR   Intensive IFR   Very Intensive IFR
Visi :
Ceiling :
>= 8 km
>= 3000ft
5 to 8 km
1000 to 3000 ft
1500m to 5 km
500 to 1000 ft
800 to 1500m
200 to 500 ft
< 800m
< 200 ft
Symbols :   Thunderstorms  Fog  Heavy snow  Heavy precipitations  Wind > 20 kt
SIGMETs :     Misc.  Thunderstorms  Icing  Turbulence  Mountain Waves  Volcanic Ashes







- Airport Elevation : 17 ft
- IATA code : GRQ


EHGG - Groningen Eelde

CURRENT METAR :
  • 231955Z AUTO 31006KT 280V340 9999 NCD 09/05 Q1018 TEMPO 32015G25KT 6000 SHRA SCT025CB

EXPIRED METARs :
  • 231925Z AUTO 33016KT 290V010 9999 -RA FEW020 SCT039 10/06 Q1018 TEMPO 32015G25KT 6000 SHRA SCT025CB
  • 231855Z AUTO 31007KT 280V350 9999 NSC 09/06 Q1017 TEMPO 31012G22KT 6000 SHRA SCT025CB
  • 231825Z AUTO 29004KT 260V320 9999 FEW015CB SCT044 09/06 Q1016 TEMPO 7000 -SHRA SCT025TCU
  • 231755Z AUTO 33007KT 300V010 9999 -RA FEW015CB SCT030 BKN038 10/07 Q1015 TEMPO 7000 -SHRA SCT025TCU
  • 231725Z AUTO 28004KT 240V330 9999 NSC 10/08 Q1014 TEMPO 7000 -SHRA SCT025TCU

TAF TAF EHGG
Valid from the 23 at 18:00 until the 25 at 00:00 UTC


231652Z 2318/2424 31011KT 9999 SCT025
PROB40
TEMPO 2318/2421 33020G30KT 5000 SHRA SCT020CB
No reported NOTAMs for that airfield.



MET'MAP, your aeronautical weather chart ! - Copyright ORBIFLY December 2007 - Disclaimer

ORBIFLY MET'MAP TEAM :

Programming & Development : Alexandra Zaïnal
Concept & Development : Baudouin d'Aumeries
Co-Development & Prog : Marc-Olivier Méhu
Technical & hardware support : Manuel Goepfert

Contact : metmap@orbifly.com




SOURCES & CREDITS :

   NOAA